createdAt,value
2022-11-24T00:04:17.644Z,6.40
2022-11-24T00:10:22.377Z,5.90
2022-11-24T00:16:27.040Z,6.38
2022-11-24T00:22:30.449Z,4.85
2022-11-24T00:28:35.781Z,9.68
2022-11-24T00:34:39.483Z,8.85
2022-11-24T00:40:43.035Z,10.00
2022-11-24T00:46:47.914Z,8.15
2022-11-24T00:52:51.417Z,12.85
2022-11-24T00:58:54.874Z,9.38
2022-11-24T01:04:59.609Z,7.43
2022-11-24T01:11:09.995Z,10.90
2022-11-24T01:17:13.642Z,5.45
2022-11-24T01:23:18.570Z,4.80
2022-11-24T01:29:22.199Z,3.47
2022-11-24T01:35:25.562Z,2.70
2022-11-24T01:41:30.792Z,2.60
2022-11-24T01:47:36.399Z,3.00
2022-11-24T01:53:41.939Z,1.40
2022-11-24T01:59:48.573Z,1.30
2022-11-24T02:05:53.369Z,1.55
2022-11-24T02:11:57.029Z,1.30
2022-11-24T02:18:02.654Z,1.95
2022-11-24T02:24:11.979Z,2.03
2022-11-24T02:30:16.813Z,2.03
2022-11-24T02:36:20.799Z,1.88
2022-11-24T02:42:24.507Z,1.90
2022-11-24T02:48:29.341Z,1.48
2022-11-24T02:54:33.270Z,2.13
2022-11-24T03:00:36.912Z,1.65
2022-11-24T03:06:42.345Z,2.00
2022-11-24T03:12:46.200Z,2.80
2022-11-24T03:18:49.677Z,1.58
2022-11-24T03:24:55.011Z,2.78
2022-11-24T03:30:58.599Z,2.45
2022-11-24T03:37:01.993Z,2.65
2022-11-24T03:43:06.714Z,1.92
2022-11-24T03:49:10.089Z,3.25
2022-11-24T03:55:13.995Z,3.65
2022-11-24T04:01:18.961Z,2.55
2022-11-24T04:07:22.485Z,2.28
2022-11-24T04:13:27.156Z,2.90
2022-11-24T04:19:31.969Z,2.63
2022-11-24T04:25:35.626Z,4.40
2022-11-24T04:31:39.209Z,3.55
2022-11-24T04:37:44.033Z,4.50
2022-11-24T04:43:47.563Z,1.38
2022-11-24T04:49:51.191Z,6.70
2022-11-24T04:55:55.927Z,3.97
2022-11-24T05:01:59.370Z,4.25
2022-11-24T05:08:02.868Z,3.40
2022-11-24T05:14:07.865Z,3.60
2022-11-24T05:20:11.639Z,5.88
2022-11-24T05:26:15.178Z,6.18
2022-11-24T05:32:20.279Z,6.30
2022-11-24T05:38:23.897Z,6.45
2022-11-24T05:44:27.223Z,4.30
2022-11-24T05:50:32.037Z,7.13
2022-11-24T05:56:35.620Z,7.53
2022-11-24T06:02:39.202Z,3.47
2022-11-24T06:08:44.190Z,5.60
2022-11-24T06:14:47.616Z,6.63
2022-11-24T06:21:09.774Z,7.30
2022-11-24T06:27:15.381Z,5.68
2022-11-24T06:33:19.014Z,12.10
2022-11-24T06:39:22.477Z,7.57
2022-11-24T06:45:27.397Z,7.05
2022-11-24T06:51:30.753Z,7.20
2022-11-24T06:57:35.233Z,7.28
2022-11-24T07:03:39.968Z,9.15
2022-11-24T07:09:43.555Z,6.85
2022-11-24T07:15:46.958Z,5.63
2022-11-24T07:21:51.684Z,4.18
2022-11-24T07:27:57.838Z,3.47
2022-11-24T07:34:01.211Z,6.32
2022-11-24T07:40:06.640Z,7.85
2022-11-24T07:46:11.943Z,5.28
2022-11-24T07:52:15.626Z,9.48
2022-11-24T07:58:21.652Z,7.82
2022-11-24T08:04:25.334Z,5.20
2022-11-24T08:10:28.715Z,8.30
2022-11-24T08:16:33.471Z,4.82
2022-11-24T08:22:37.001Z,7.97
2022-11-24T08:28:40.377Z,6.25
2022-11-24T08:34:45.190Z,7.15
2022-11-24T08:40:48.587Z,5.93
2022-11-24T08:46:52.397Z,7.00
2022-11-24T08:52:57.139Z,7.30
2022-11-24T08:59:01.087Z,5.68
2022-11-24T09:05:07.247Z,6.60
2022-11-24T09:11:22.600Z,5.85
2022-11-24T09:17:25.957Z,5.45
2022-11-24T09:23:29.320Z,7.45
2022-11-24T09:29:34.294Z,5.90
2022-11-24T09:35:39.413Z,7.38
2022-11-24T09:41:57.646Z,7.57
2022-11-24T09:48:05.278Z,7.85
2022-11-24T09:54:12.785Z,7.07
2022-11-24T10:00:16.660Z,5.35
2022-11-24T10:06:24.061Z,6.72
2022-11-24T10:12:36.131Z,5.57
2022-11-24T10:18:44.488Z,4.88
2022-11-24T10:24:59.583Z,8.88
2022-11-24T10:31:15.121Z,9.07
2022-11-24T10:37:22.612Z,6.22
2022-11-24T10:43:29.018Z,8.85
2022-11-24T10:49:34.450Z,6.78
2022-11-24T10:55:56.884Z,7.00
2022-11-24T11:02:02.263Z,6.43
2022-11-24T11:08:13.835Z,7.32
2022-11-24T11:14:31.171Z,8.40
2022-11-24T11:20:36.736Z,7.43
2022-11-24T11:26:41.607Z,9.73
2022-11-24T11:39:29.066Z,11.25
2022-11-24T11:45:35.590Z,7.57
2022-11-24T11:51:47.449Z,9.50
2022-11-24T11:57:58.695Z,6.35
2022-11-24T12:04:06.407Z,6.35
2022-11-24T12:10:17.268Z,9.98
2022-11-24T12:16:36.290Z,11.23
2022-11-24T12:22:44.750Z,12.45
2022-11-24T12:28:54.066Z,7.15
2022-11-24T12:35:02.035Z,8.40
2022-11-24T12:41:43.230Z,7.13
2022-11-24T12:47:40.137Z,9.75
2022-11-24T12:53:45.216Z,10.68
2022-11-24T12:59:52.210Z,8.73
2022-11-24T13:05:59.791Z,8.88
2022-11-24T13:12:13.746Z,10.20
2022-11-24T13:18:31.983Z,9.52
2022-11-24T13:24:37.018Z,8.35
2022-11-24T13:30:55.645Z,9.25
2022-11-24T13:37:26.842Z,10.18
2022-11-24T13:43:24.723Z,9.38
2022-11-24T13:49:39.004Z,11.02
2022-11-24T13:55:54.674Z,18.83
2022-11-24T14:01:58.476Z,13.52
2022-11-24T14:08:02.066Z,13.93
2022-11-24T14:14:17.704Z,5.97
2022-11-24T14:20:25.374Z,11.55
2022-11-24T14:26:31.675Z,16.45
2022-11-24T14:32:37.744Z,30.77
2022-11-24T14:38:41.141Z,10.38
2022-11-24T14:44:47.364Z,17.50
2022-11-24T14:50:52.136Z,13.18
2022-11-24T14:57:00.189Z,9.18
2022-11-24T15:03:16.102Z,15.07
2022-11-24T15:09:24.096Z,11.20
2022-11-24T15:15:32.362Z,11.25
2022-11-24T15:21:36.668Z,12.35
2022-11-24T15:27:41.376Z,11.50
2022-11-24T15:33:44.769Z,14.25
2022-11-24T15:39:48.186Z,13.38
2022-11-24T15:45:53.006Z,9.32
2022-11-24T15:51:56.908Z,13.98
2022-11-24T15:58:00.331Z,14.25
2022-11-24T16:04:05.250Z,14.18
2022-11-24T16:10:10.720Z,13.73
2022-11-24T16:16:14.832Z,9.63
2022-11-24T16:22:19.631Z,9.00
2022-11-24T16:28:23.916Z,8.65
2022-11-24T16:34:27.444Z,12.00
2022-11-24T16:40:32.209Z,11.27
2022-11-24T16:46:35.823Z,9.00
2022-11-24T16:52:39.448Z,14.55
2022-11-24T16:58:45.258Z,42.60
2022-11-24T17:04:52.176Z,44.47
2022-11-24T17:10:55.627Z,13.23
2022-11-24T17:17:00.431Z,11.18
2022-11-24T17:23:04.344Z,7.03
2022-11-24T17:29:08.416Z,11.02
2022-11-24T17:35:13.299Z,12.02
2022-11-24T17:41:16.724Z,9.88
2022-11-24T17:47:20.067Z,8.85
2022-11-24T17:53:24.900Z,11.27
2022-11-24T17:59:28.334Z,15.43
2022-11-24T18:05:32.031Z,11.73
2022-11-24T18:11:36.947Z,10.27
2022-11-24T18:17:40.844Z,15.15
2022-11-24T18:23:45.035Z,13.25
2022-11-24T18:29:54.848Z,16.83
2022-11-24T18:36:00.167Z,15.83
2022-11-24T18:42:04.791Z,16.55
2022-11-24T18:48:10.190Z,12.57
2022-11-24T18:54:13.519Z,11.80
2022-11-24T19:00:17.577Z,10.30
2022-11-24T19:06:23.969Z,10.25
2022-11-24T19:12:27.515Z,12.20
2022-11-24T19:18:31.086Z,9.05
2022-11-24T19:24:41.615Z,10.98
2022-11-24T19:30:45.461Z,8.18
2022-11-24T19:36:48.877Z,6.43
2022-11-24T19:42:53.644Z,9.65
2022-11-24T19:48:58.053Z,9.20
2022-11-24T19:55:02.162Z,10.05
2022-11-24T20:01:10.150Z,10.13
2022-11-24T20:07:13.600Z,14.10
2022-11-24T20:13:16.954Z,10.75
2022-11-24T20:19:22.041Z,10.43
2022-11-24T20:25:25.497Z,8.30
2022-11-24T20:31:30.157Z,15.43
2022-11-24T20:37:35.176Z,7.72
2022-11-24T20:43:38.930Z,11.20
2022-11-24T20:49:42.356Z,10.13
2022-11-24T20:55:47.126Z,17.35
2022-11-24T21:01:51.017Z,8.77
2022-11-24T21:07:54.531Z,9.52
2022-11-24T21:13:59.716Z,14.05
2022-11-24T21:20:03.165Z,12.75
2022-11-24T21:26:13.117Z,14.38
2022-11-24T21:32:19.740Z,17.63
2022-11-24T21:38:23.123Z,16.52
2022-11-24T21:44:26.475Z,15.15
2022-11-24T21:50:31.286Z,11.25
2022-11-24T21:56:34.699Z,12.05
2022-11-24T22:02:38.447Z,10.40
2022-11-24T22:08:43.256Z,13.20
2022-11-24T22:14:46.744Z,7.82
2022-11-24T22:20:56.141Z,3.85
2022-11-24T22:27:02.848Z,6.95
2022-11-24T22:33:06.389Z,5.70
2022-11-24T22:39:12.840Z,6.82
2022-11-24T22:45:17.559Z,6.85
2022-11-24T22:51:21.498Z,11.27
2022-11-24T22:57:25.051Z,8.52
2022-11-24T23:03:29.879Z,8.30
2022-11-24T23:09:33.908Z,6.00
2022-11-24T23:15:37.323Z,5.47
2022-11-24T23:21:42.245Z,4.32
2022-11-24T23:27:45.622Z,5.45
2022-11-24T23:33:49.235Z,2.58
2022-11-24T23:39:53.929Z,1.67
2022-11-24T23:45:57.523Z,3.35
2022-11-24T23:52:00.982Z,2.28
2022-11-24T23:58:07.288Z,1.95
